createdAt,value
2018-01-21T11:58:41.978Z,77.50
2018-01-21T12:01:10.251Z,76.70
2018-01-21T12:03:38.586Z,76.80
2018-01-21T12:06:06.187Z,76.80
2018-01-21T12:08:34.456Z,76.70
2018-01-21T12:11:01.969Z,76.70
2018-01-21T12:13:29.491Z,76.40
2018-01-21T12:15:57.802Z,78.00
2018-01-21T12:18:25.305Z,77.70
2018-01-21T12:20:52.842Z,76.60
2018-01-21T12:23:20.354Z,75.60
2018-01-21T12:25:47.869Z,75.30
2018-01-21T12:28:15.399Z,75.60
2018-01-21T12:30:43.675Z,76.00
2018-01-21T12:33:11.969Z,76.20
2018-01-21T12:35:39.485Z,76.20
2018-01-21T12:38:07.003Z,76.40
2018-01-21T12:40:34.524Z,76.70
2018-01-21T12:43:02.035Z,77.10
2018-01-21T12:45:29.554Z,77.40
2018-01-21T12:47:57.091Z,77.20
2018-01-21T12:50:24.602Z,78.50
2018-01-21T12:52:52.116Z,78.00
2018-01-21T12:55:19.657Z,77.80
2018-01-21T12:57:47.164Z,78.00
2018-01-21T13:00:14.671Z,77.60
2018-01-21T13:02:42.200Z,77.20
2018-01-21T13:05:09.701Z,77.20
2018-01-21T13:07:37.214Z,78.20
2018-01-21T13:10:04.749Z,77.50
2018-01-21T13:12:32.249Z,77.50
2018-01-21T13:14:59.760Z,76.90
2018-01-21T13:17:27.297Z,77.00
2018-01-21T13:19:55.569Z,76.60
2018-01-21T13:22:23.887Z,76.50
2018-01-21T13:24:51.398Z,76.50
2018-01-21T13:27:18.911Z,75.90
2018-01-21T13:29:46.450Z,75.80
2018-01-21T13:32:14.715Z,76.80
2018-01-21T13:34:43.027Z,77.10
2018-01-21T13:37:10.537Z,77.00
2018-01-21T13:39:38.063Z,76.80
2018-01-21T13:42:05.587Z,77.40
2018-01-21T13:44:33.857Z,76.60
2018-01-21T13:47:01.365Z,76.60
2018-01-21T13:49:28.913Z,77.10
2018-01-21T13:51:56.433Z,76.50
2018-01-21T13:54:23.943Z,76.20
2018-01-21T13:56:51.479Z,76.20
2018-01-21T13:59:18.980Z,76.00
2018-01-21T14:01:46.473Z,76.10
2018-01-21T14:04:14.001Z,76.00
2018-01-21T14:06:41.508Z,76.20
2018-01-21T14:09:09.004Z,76.90
2018-01-21T14:11:37.321Z,75.70
2018-01-21T14:14:04.820Z,75.60
2018-01-21T14:16:32.320Z,75.70
2018-01-21T14:18:59.859Z,76.50
2018-01-21T14:21:27.366Z,76.60
2018-01-21T14:23:54.871Z,77.90
2018-01-21T14:26:22.388Z,77.70
2018-01-21T14:28:49.930Z,76.70
2018-01-21T14:31:17.416Z,76.50
2018-01-21T14:33:44.940Z,76.70
2018-01-21T14:36:12.448Z,76.60
2018-01-21T14:38:39.950Z,77.10
2018-01-21T14:41:07.496Z,76.40
2018-01-21T14:43:34.999Z,76.90
2018-01-21T14:46:03.260Z,76.90
2018-01-21T14:48:30.797Z,76.90
2018-01-21T14:50:58.299Z,77.40
2018-01-21T14:53:26.564Z,80.30
2018-01-21T14:55:54.105Z,80.20
2018-01-21T14:58:21.652Z,79.20
2018-01-21T15:00:49.205Z,77.90
2018-01-21T15:03:16.742Z,78.60
2018-01-21T15:05:45.085Z,78.60
2018-01-21T15:08:12.585Z,78.60
2018-01-21T15:10:40.886Z,77.90
2018-01-21T15:13:08.411Z,77.90
2018-01-21T15:15:35.930Z,77.90
2018-01-21T15:18:03.466Z,77.90
2018-01-21T15:20:31.002Z,78.40
2018-01-21T15:22:58.517Z,78.40
2018-01-21T15:25:26.057Z,77.70
2018-01-21T15:27:53.569Z,78.70
2018-01-21T15:30:21.081Z,78.20
2018-01-21T15:32:49.392Z,78.40
2018-01-21T15:35:16.901Z,78.40
2018-01-21T15:37:44.412Z,78.70
2018-01-21T15:40:11.970Z,78.60
2018-01-21T15:42:39.475Z,78.50
2018-01-21T15:45:06.987Z,78.30
2018-01-21T15:47:34.518Z,78.70
2018-01-21T15:50:02.029Z,78.60
2018-01-21T15:52:29.544Z,78.80
2018-01-21T15:54:57.112Z,78.60
2018-01-21T15:57:25.384Z,79.70
2018-01-21T15:59:52.939Z,79.00
2018-01-21T16:02:20.479Z,79.60
2018-01-21T16:04:47.987Z,79.30
2018-01-21T16:07:16.293Z,79.50
2018-01-21T16:09:43.825Z,79.50
2018-01-21T16:12:11.328Z,79.30
2018-01-21T16:14:38.830Z,80.00
2018-01-21T16:17:06.371Z,79.60
2018-01-21T16:19:33.877Z,80.20
2018-01-21T16:22:02.174Z,80.60
2018-01-21T16:24:30.481Z,80.20
2018-01-21T16:26:58.022Z,80.20
2018-01-21T16:29:26.298Z,80.10
2018-01-21T16:31:54.610Z,80.40
2018-01-21T16:34:22.376Z,80.40
2018-01-21T16:36:49.672Z,80.40
2018-01-21T16:39:17.204Z,80.40
2018-01-21T16:41:44.718Z,79.90
2018-01-21T16:44:12.226Z,79.80
2018-01-21T16:46:39.801Z,79.50
2018-01-21T16:49:07.336Z,79.40
2018-01-21T16:51:34.845Z,79.00
2018-01-21T16:54:02.385Z,79.70
2018-01-21T16:56:29.902Z,79.80
2018-01-21T16:58:58.181Z,79.70
2018-01-21T17:01:26.504Z,79.80
2018-01-21T17:03:54.014Z,79.70
2018-01-21T17:06:21.524Z,79.70
2018-01-21T17:08:49.097Z,79.00
2018-01-21T17:11:16.607Z,79.10
2018-01-21T17:13:44.113Z,78.90
2018-01-21T17:16:11.967Z,78.90
2018-01-21T17:18:39.489Z,79.00
2018-01-21T17:21:07.033Z,79.40
2018-01-21T17:23:34.628Z,78.70
2018-01-21T17:26:02.150Z,78.90
2018-01-21T17:28:29.677Z,78.50
2018-01-21T17:30:57.992Z,79.40
2018-01-21T17:33:25.497Z,79.40
2018-01-21T17:35:52.999Z,79.50
2018-01-21T17:38:20.533Z,79.70
2018-01-21T17:40:48.816Z,79.90
2018-01-21T17:43:17.104Z,80.30
2018-01-21T17:45:45.395Z,79.90
2018-01-21T17:48:12.925Z,79.80
2018-01-21T17:50:40.472Z,79.90
2018-01-21T17:53:08.007Z,79.60
2018-01-21T17:55:35.534Z,79.50
2018-01-21T17:58:03.890Z,79.60
2018-01-21T18:00:31.463Z,79.60
2018-01-21T18:02:59.041Z,79.90
2018-01-21T18:05:27.376Z,79.80
2018-01-21T18:07:54.929Z,79.80
2018-01-21T18:10:22.448Z,79.60
2018-01-21T18:12:50.778Z,79.90
2018-01-21T18:15:18.325Z,79.70
2018-01-21T18:17:45.846Z,79.80
2018-01-21T18:20:13.378Z,80.00
2018-01-21T18:22:40.924Z,80.20
2018-01-21T18:25:08.453Z,80.10
2018-01-21T18:27:36.799Z,80.70
2018-01-21T18:30:04.322Z,80.70
2018-01-21T18:32:31.865Z,81.00
2018-01-21T18:35:00.186Z,81.10
2018-01-21T18:37:27.714Z,81.00
2018-01-21T18:39:56.006Z,81.00
2018-01-21T18:42:23.555Z,81.00
2018-01-21T18:44:51.846Z,81.20
2018-01-21T18:47:19.355Z,81.20
2018-01-21T18:49:46.902Z,80.90
2018-01-21T18:52:14.445Z,81.20
2018-01-21T18:54:41.974Z,80.90
2018-01-21T18:57:09.519Z,81.00
2018-01-21T18:59:37.054Z,81.30
2018-01-21T19:02:04.563Z,81.70
2018-01-21T19:04:32.872Z,81.40
2018-01-21T19:07:00.396Z,81.40
2018-01-21T19:09:27.938Z,81.40
2018-01-21T19:11:55.484Z,81.10
2018-01-21T19:14:23.011Z,81.40
2018-01-21T19:16:51.327Z,81.50
2018-01-21T19:19:18.868Z,81.40
2018-01-21T19:21:46.407Z,81.50
2018-01-21T19:24:13.934Z,81.80
2018-01-21T19:26:41.497Z,81.80
2018-01-21T19:29:09.018Z,82.00
2018-01-21T19:31:37.309Z,81.90
2018-01-21T19:34:04.883Z,81.90
2018-01-21T19:36:32.443Z,81.70
2018-01-21T19:42:10.265Z,81.40
2018-01-21T19:44:37.822Z,81.90
2018-01-21T19:47:05.360Z,82.20
2018-01-21T19:49:32.912Z,82.20
2018-01-21T19:52:01.212Z,82.30
2018-01-21T19:54:28.729Z,82.20
2018-01-21T19:56:56.261Z,82.60
2018-01-21T19:59:23.792Z,81.70
2018-01-21T20:01:52.124Z,80.70
2018-01-21T20:04:19.752Z,80.70
2018-01-21T20:06:47.386Z,80.70
2018-01-21T20:09:14.933Z,81.40
2018-01-21T20:11:42.485Z,80.80
2018-01-21T20:14:10.055Z,80.30
2018-01-21T20:16:37.591Z,80.00
2018-01-21T20:19:05.116Z,80.00
2018-01-21T20:21:33.440Z,79.70
2018-01-21T20:24:00.954Z,79.80
2018-01-21T20:26:29.237Z,79.40
2018-01-21T20:28:57.588Z,80.00
2018-01-21T20:31:25.109Z,80.00
2018-01-21T20:33:52.621Z,80.30
2018-01-21T20:36:20.181Z,80.50
2018-01-21T20:38:47.709Z,80.60
2018-01-21T20:41:15.234Z,80.40
2018-01-21T20:43:43.528Z,79.20
2018-01-21T20:46:11.033Z,79.10
2018-01-21T20:48:38.570Z,79.90
2018-01-21T20:51:11.968Z,79.70
2018-01-21T20:53:45.179Z,80.10
2018-01-21T20:56:12.734Z,80.60
2018-01-21T20:58:40.323Z,80.80
2018-01-21T21:01:07.874Z,80.40
2018-01-21T21:03:35.446Z,80.60
2018-01-21T21:06:03.080Z,81.10
2018-01-21T21:08:30.664Z,81.10
2018-01-21T21:10:58.252Z,81.10
2018-01-21T21:13:25.791Z,81.20
2018-01-21T21:15:53.347Z,81.30
2018-01-21T21:18:20.882Z,81.40
2018-01-21T21:20:48.403Z,81.80
2018-01-21T21:23:15.928Z,82.10
2018-01-21T21:25:43.457Z,82.20
2018-01-21T21:28:11.753Z,82.60
2018-01-21T21:30:40.081Z,83.50
2018-01-21T21:33:07.616Z,82.80
2018-01-21T21:35:35.145Z,83.20
2018-01-21T21:38:03.468Z,83.60
2018-01-21T21:40:31.008Z,83.60
2018-01-21T21:42:58.565Z,83.70
2018-01-21T21:45:26.126Z,83.50
2018-01-21T21:47:54.416Z,84.30
2018-01-21T21:50:22.715Z,84.20
2018-01-21T21:52:50.224Z,84.10
2018-01-21T21:55:17.755Z,83.10
2018-01-21T21:57:45.311Z,80.80
2018-01-21T22:00:12.853Z,80.20
2018-01-21T22:02:40.384Z,80.20
2018-01-21T22:05:07.923Z,80.30
2018-01-21T22:07:35.469Z,80.30
2018-01-21T22:10:02.971Z,80.80
2018-01-21T22:12:30.533Z,81.40
2018-01-21T22:14:58.064Z,81.30
2018-01-21T22:17:26.353Z,81.40
2018-01-21T22:19:53.889Z,81.40
2018-01-21T22:22:21.419Z,81.70
2018-01-21T22:24:49.692Z,81.70
2018-01-21T22:27:17.245Z,81.60
2018-01-21T22:29:44.770Z,81.90
2018-01-21T22:32:12.384Z,81.90
2018-01-21T22:34:39.960Z,82.20
2018-01-21T22:37:08.257Z,82.30
2018-01-21T22:39:35.774Z,82.30
2018-01-21T22:42:03.335Z,82.40
2018-01-21T22:44:30.874Z,82.40
2018-01-21T22:46:58.401Z,83.00
2018-01-21T22:49:26.720Z,83.10
2018-01-21T22:51:54.245Z,83.00
2018-01-21T22:54:22.545Z,83.30
2018-01-21T22:56:50.091Z,83.30
2018-01-21T22:59:18.399Z,83.20
2018-01-21T23:01:45.938Z,83.20
2018-01-21T23:04:14.250Z,83.70
2018-01-21T23:06:41.768Z,83.70
2018-01-21T23:09:10.067Z,83.90
2018-01-21T23:11:37.617Z,83.80
2018-01-21T23:14:05.927Z,84.00
2018-01-21T23:16:33.457Z,83.90
2018-01-21T23:19:01.854Z,84.60
2018-01-21T23:21:30.146Z,84.00
2018-01-21T23:23:57.691Z,83.90
2018-01-21T23:26:26.005Z,83.90
2018-01-21T23:28:53.528Z,83.90
2018-01-21T23:31:21.842Z,84.10
2018-01-21T23:33:49.381Z,84.00
2018-01-21T23:36:17.661Z,83.90
2018-01-21T23:38:45.962Z,84.00
2018-01-21T23:41:13.532Z,84.00
2018-01-21T23:43:41.811Z,83.60
2018-01-21T23:46:09.392Z,83.60
2018-01-21T23:48:36.908Z,83.30
2018-01-21T23:51:05.330Z,83.80
2018-01-21T23:53:32.894Z,83.80
2018-01-21T23:56:00.415Z,83.70
2018-01-21T23:58:28.707Z,83.50
